createdAt,value
2022-09-07T00:00:06.252Z,53.39
2022-09-07T00:03:02.798Z,53.64
2022-09-07T00:05:44.642Z,53.83
2022-09-07T00:08:22.958Z,53.98
2022-09-07T00:11:02.102Z,54.22
2022-09-07T00:13:41.418Z,54.43
2022-09-07T00:16:22.314Z,54.56
2022-09-07T00:19:03.102Z,54.71
2022-09-07T00:21:39.337Z,54.92
2022-09-07T00:24:15.824Z,55.06
2022-09-07T00:26:51.757Z,55.27
2022-09-07T00:29:28.513Z,55.39
2022-09-07T00:32:08.704Z,55.59
2022-09-07T00:34:45.344Z,55.77
2022-09-07T00:37:21.735Z,55.90
2022-09-07T00:39:58.214Z,56.00
2022-09-07T00:42:34.358Z,56.07
2022-09-07T00:45:21.079Z,56.20
2022-09-07T00:48:04.253Z,56.34
2022-09-07T00:50:49.164Z,56.52
2022-09-07T00:53:30.195Z,56.69
2022-09-07T00:56:08.949Z,56.90
2022-09-07T00:58:46.861Z,57.01
2022-09-07T01:01:24.285Z,57.20
2022-09-07T01:04:03.322Z,57.37
2022-09-07T01:06:43.441Z,57.66
2022-09-07T01:09:23.463Z,57.75
2022-09-07T01:12:04.799Z,58.07
2022-09-07T01:14:49.565Z,58.24
2022-09-07T01:17:43.239Z,58.48
2022-09-07T01:21:19.770Z,58.68
2022-09-07T01:24:39.770Z,58.93
2022-09-07T01:28:07.443Z,59.10
2022-09-07T01:30:56.053Z,59.17
2022-09-07T01:33:56.838Z,59.34
2022-09-07T01:36:43.259Z,59.44
2022-09-07T01:39:24.916Z,59.53
2022-09-07T01:42:08.963Z,59.68
2022-09-07T01:44:51.316Z,59.99
2022-09-07T01:47:33.445Z,59.99
2022-09-07T01:50:19.698Z,60.03
2022-09-07T01:53:03.273Z,60.04
2022-09-07T01:55:47.963Z,60.11
2022-09-07T01:58:30.445Z,60.26
2022-09-07T02:01:12.208Z,60.41
2022-09-07T02:03:51.978Z,60.49
2022-09-07T02:06:40.142Z,60.58
2022-09-07T02:09:28.065Z,60.60
2022-09-07T02:12:11.719Z,60.74
2022-09-07T02:14:54.706Z,60.68
2022-09-07T02:17:39.216Z,60.83
2022-09-07T02:20:22.696Z,60.70
2022-09-07T02:23:05.972Z,60.75
2022-09-07T02:25:47.960Z,60.93
2022-09-07T02:28:25.808Z,61.03
2022-09-07T02:31:02.292Z,61.00
2022-09-07T02:33:38.645Z,60.98
2022-09-07T02:36:19.444Z,61.08
2022-09-07T02:38:55.558Z,61.09
2022-09-07T02:41:42.393Z,61.17
2022-09-07T02:44:29.601Z,61.37
2022-09-07T02:47:27.934Z,61.51
2022-09-07T02:50:52.374Z,61.59
2022-09-07T02:54:08.690Z,61.77
2022-09-07T02:57:06.876Z,62.00
2022-09-07T03:00:01.780Z,62.31
2022-09-07T03:02:52.875Z,62.55
2022-09-07T03:05:38.937Z,62.66
2022-09-07T03:08:20.768Z,62.91
2022-09-07T03:10:57.372Z,63.16
2022-09-07T03:13:34.570Z,63.17
2022-09-07T03:16:15.928Z,63.25
2022-09-07T03:18:52.955Z,63.34
2022-09-07T03:21:29.109Z,63.45
2022-09-07T03:24:06.285Z,63.50
2022-09-07T03:26:46.928Z,63.48
2022-09-07T03:29:23.215Z,63.50
2022-09-07T03:31:59.176Z,63.54
2022-09-07T03:34:36.430Z,63.59
2022-09-07T03:37:12.421Z,63.62
2022-09-07T03:39:48.515Z,63.63
2022-09-07T03:42:25.118Z,63.49
2022-09-07T03:45:01.139Z,63.42
2022-09-07T03:47:38.789Z,63.66
2022-09-07T03:50:15.910Z,63.84
2022-09-07T03:52:51.919Z,63.90
2022-09-07T03:55:28.040Z,63.98
2022-09-07T03:58:04.090Z,63.94
2022-09-07T04:00:43.616Z,63.93
2022-09-07T04:03:19.501Z,64.01
2022-09-07T04:05:57.556Z,64.34
2022-09-07T04:08:35.967Z,64.33
2022-09-07T04:11:15.446Z,64.91
2022-09-07T04:13:51.750Z,65.17
2022-09-07T04:16:29.810Z,65.39
2022-09-07T04:19:06.878Z,65.40
2022-09-07T04:21:47.205Z,65.68
2022-09-07T04:24:23.373Z,65.33
2022-09-07T04:26:59.552Z,65.55
2022-09-07T04:29:36.009Z,65.44
2022-09-07T04:32:15.650Z,65.27
2022-09-07T04:34:54.522Z,64.98
2022-09-07T04:37:31.017Z,64.70
2022-09-07T04:40:08.398Z,64.61
2022-09-07T04:42:44.985Z,64.26
2022-09-07T04:45:21.203Z,63.84
2022-09-07T04:47:57.155Z,63.74
2022-09-07T04:50:33.156Z,62.53
2022-09-07T04:53:09.096Z,61.79
2022-09-07T04:55:45.101Z,61.22
2022-09-07T04:58:21.044Z,61.09
2022-09-07T05:00:57.212Z,58.97
2022-09-07T05:03:36.379Z,57.86
2022-09-07T05:06:14.167Z,56.54
2022-09-07T05:08:54.019Z,55.39
2022-09-07T05:11:31.177Z,54.29
2022-09-07T05:14:08.282Z,53.06
2022-09-07T05:16:44.500Z,51.99
2022-09-07T05:19:20.546Z,50.82
2022-09-07T05:21:57.981Z,50.19
2022-09-07T05:24:36.819Z,49.18
2022-09-07T05:27:12.870Z,48.89
2022-09-07T05:30:05.093Z,48.38
2022-09-07T05:32:45.531Z,47.43
2022-09-07T05:35:21.771Z,46.68
2022-09-07T05:37:57.658Z,46.29
2022-09-07T05:40:40.491Z,45.44
2022-09-07T05:43:16.863Z,44.41
2022-09-07T05:45:55.334Z,43.95
2022-09-07T05:48:31.939Z,43.64
2022-09-07T05:51:09.346Z,43.28
2022-09-07T05:53:48.886Z,43.44
2022-09-07T05:56:24.836Z,42.72
2022-09-07T05:59:00.816Z,42.77
2022-09-07T06:01:36.936Z,41.75
2022-09-07T06:04:12.925Z,41.77
2022-09-07T06:07:17.696Z,41.07
2022-09-07T06:12:44.339Z,40.65
2022-09-07T06:15:23.079Z,40.19
2022-09-07T06:17:59.085Z,39.85
2022-09-07T06:20:35.078Z,39.42
2022-09-07T06:23:11.068Z,39.11
2022-09-07T06:25:54.810Z,39.23
2022-09-07T06:28:36.142Z,39.38
2022-09-07T06:31:15.582Z,38.79
2022-09-07T06:33:53.401Z,38.83
2022-09-07T06:36:31.827Z,38.67
2022-09-07T06:39:08.042Z,38.28
2022-09-07T06:41:59.308Z,38.32
2022-09-07T06:44:38.475Z,37.85
2022-09-07T06:47:14.810Z,38.03
2022-09-07T06:49:50.994Z,38.00
2022-09-07T06:52:28.251Z,38.11
2022-09-07T06:55:04.538Z,37.59
2022-09-07T06:57:40.577Z,37.67
2022-09-07T07:00:19.308Z,36.87
2022-09-07T07:02:55.447Z,36.96
2022-09-07T07:05:31.986Z,37.59
2022-09-07T07:08:08.236Z,37.57
2022-09-07T07:10:44.840Z,37.46
2022-09-07T07:16:02.101Z,37.37
2022-09-07T07:18:39.110Z,37.47
2022-09-07T07:21:17.377Z,36.98
2022-09-07T07:23:56.239Z,36.74
2022-09-07T07:26:34.113Z,36.48
2022-09-07T07:29:12.091Z,36.38
2022-09-07T07:31:49.241Z,36.42
2022-09-07T07:34:25.578Z,36.63
2022-09-07T07:37:01.796Z,36.68
2022-09-07T07:42:34.236Z,36.61
2022-09-07T07:48:12.461Z,35.78
2022-09-07T07:50:57.718Z,36.70
2022-09-07T07:53:43.402Z,36.95
2022-09-07T07:56:19.869Z,36.93
2022-09-07T07:58:55.846Z,36.53
2022-09-07T08:01:32.522Z,36.81
2022-09-07T08:04:09.183Z,36.85
2022-09-07T08:06:47.649Z,37.06
2022-09-07T08:09:23.529Z,37.41
2022-09-07T08:11:59.703Z,37.45
2022-09-07T08:14:40.970Z,37.52
2022-09-07T08:17:20.045Z,38.40
2022-09-07T08:19:56.374Z,38.89
2022-09-07T08:22:34.830Z,37.90
2022-09-07T08:25:12.878Z,37.86
2022-09-07T08:27:48.649Z,37.97
2022-09-07T08:30:25.421Z,38.20
2022-09-07T08:33:01.272Z,38.21
2022-09-07T08:35:37.638Z,38.68
2022-09-07T08:38:15.249Z,38.92
2022-09-07T08:40:54.439Z,38.99
2022-09-07T08:43:54.806Z,38.71
2022-09-07T08:46:39.606Z,39.17
2022-09-07T08:49:27.281Z,38.98
2022-09-07T08:52:09.797Z,38.66
2022-09-07T08:54:56.023Z,38.85
2022-09-07T08:57:36.600Z,39.27
2022-09-07T09:00:18.198Z,39.21
2022-09-07T09:06:06.587Z,40.06
2022-09-07T09:09:09.357Z,39.35
2022-09-07T09:12:01.039Z,39.94
2022-09-07T09:14:58.255Z,41.00
2022-09-07T09:17:42.484Z,40.66
2022-09-07T09:20:32.215Z,41.12
2022-09-07T09:23:18.716Z,41.64
2022-09-07T09:26:00.167Z,41.81
2022-09-07T09:28:36.010Z,41.94
2022-09-07T09:31:28.075Z,41.59
2022-09-07T09:34:23.636Z,40.72
2022-09-07T09:37:03.163Z,41.44
2022-09-07T09:39:42.686Z,42.08
2022-09-07T09:42:31.479Z,42.37
2022-09-07T09:45:20.859Z,42.27
2022-09-07T09:48:01.340Z,41.07
2022-09-07T09:53:51.641Z,41.32
2022-09-07T09:56:43.950Z,40.98
2022-09-07T10:05:43.784Z,41.42
2022-09-07T10:08:28.514Z,41.85
2022-09-07T10:11:09.339Z,41.32
2022-09-07T10:13:58.461Z,41.95
2022-09-07T10:16:45.048Z,41.34
2022-09-07T10:19:37.073Z,41.22
2022-09-07T10:22:34.450Z,40.79
2022-09-07T10:25:34.905Z,41.38
2022-09-07T10:28:23.958Z,41.22
2022-09-07T10:31:22.979Z,40.93
2022-09-07T10:34:27.708Z,40.85
2022-09-07T10:37:09.004Z,40.58
2022-09-07T10:40:00.610Z,40.97
2022-09-07T10:43:20.802Z,40.39
2022-09-07T10:46:01.196Z,40.63
2022-09-07T10:48:51.263Z,40.28
2022-09-07T10:51:38.111Z,40.68
2022-09-07T10:54:31.408Z,40.70
2022-09-07T10:57:34.459Z,40.58
2022-09-07T11:00:18.017Z,40.84
2022-09-07T11:03:39.876Z,40.54
2022-09-07T11:06:26.797Z,40.27
2022-09-07T11:09:32.773Z,40.44
2022-09-07T11:12:19.014Z,40.37
2022-09-07T11:15:06.784Z,39.95
2022-09-07T11:17:53.888Z,40.78
2022-09-07T11:20:37.282Z,40.51
2022-09-07T11:23:27.359Z,41.12
2022-09-07T11:26:14.190Z,40.75
2022-09-07T11:32:04.688Z,40.83
2022-09-07T11:34:52.237Z,40.99
2022-09-07T11:37:39.743Z,40.61
2022-09-07T11:40:28.214Z,40.87
2022-09-07T11:43:17.810Z,41.38
2022-09-07T11:45:59.462Z,41.54
2022-09-07T11:48:42.981Z,42.05
2022-09-07T11:51:38.729Z,41.38
2022-09-07T11:54:38.768Z,41.19
2022-09-07T11:57:39.817Z,41.63
2022-09-07T12:00:24.684Z,41.02
2022-09-07T12:03:41.544Z,41.31
2022-09-07T12:07:07.200Z,41.47
2022-09-07T12:10:15.480Z,41.38
2022-09-07T12:13:29.064Z,41.55
2022-09-07T12:16:14.034Z,41.24
2022-09-07T12:19:20.032Z,41.34
2022-09-07T12:22:02.005Z,41.62
2022-09-07T12:24:46.859Z,41.07
2022-09-07T12:27:44.048Z,40.92
2022-09-07T12:31:01.622Z,41.09
2022-09-07T12:33:41.240Z,40.40
2022-09-07T12:36:52.858Z,40.47
2022-09-07T12:39:32.523Z,40.22
2022-09-07T12:42:32.163Z,40.05
2022-09-07T12:45:53.214Z,40.48
2022-09-07T12:48:50.319Z,40.29
2022-09-07T12:55:04.367Z,40.69
2022-09-07T12:57:58.298Z,40.37
2022-09-07T13:01:05.221Z,40.75
2022-09-07T13:04:30.020Z,40.44
2022-09-07T13:07:49.756Z,40.62
2022-09-07T13:10:36.483Z,41.01
2022-09-07T13:20:30.414Z,41.88
2022-09-07T13:23:28.476Z,40.56
2022-09-07T13:26:07.696Z,40.87
2022-09-07T13:29:03.482Z,40.68
2022-09-07T13:32:08.550Z,40.72
2022-09-07T13:34:55.914Z,40.47
2022-09-07T13:37:38.501Z,40.46
2022-09-07T13:40:24.790Z,40.32
2022-09-07T13:43:04.126Z,40.39
2022-09-07T13:46:01.551Z,40.52
2022-09-07T13:48:44.029Z,40.74
2022-09-07T13:51:30.520Z,40.86
2022-09-07T13:54:17.912Z,40.17
2022-09-07T13:57:07.555Z,40.32
2022-09-07T13:59:46.320Z,40.68
2022-09-07T14:02:33.388Z,40.84
2022-09-07T14:05:18.149Z,40.46
2022-09-07T14:07:54.213Z,40.55
2022-09-07T14:10:31.262Z,41.31
2022-09-07T14:13:16.604Z,41.37
2022-09-07T14:15:53.757Z,41.04
2022-09-07T14:18:35.477Z,40.83
2022-09-07T14:21:20.357Z,41.16
2022-09-07T14:23:58.234Z,40.75
2022-09-07T14:26:35.586Z,40.82
2022-09-07T14:29:30.152Z,41.52
2022-09-07T14:32:14.878Z,41.11
2022-09-07T14:34:52.221Z,40.68
2022-09-07T14:37:29.577Z,40.65
2022-09-07T14:40:08.029Z,40.96
2022-09-07T14:42:46.058Z,40.88
2022-09-07T14:45:37.610Z,40.85
2022-09-07T14:48:31.503Z,41.24
2022-09-07T14:51:29.659Z,41.16
2022-09-07T14:54:08.967Z,41.39
2022-09-07T14:57:01.221Z,41.06
2022-09-07T14:59:48.448Z,41.26
2022-09-07T15:02:39.282Z,41.00
2022-09-07T15:05:31.003Z,41.60
2022-09-07T15:08:06.779Z,41.32
2022-09-07T15:11:32.770Z,41.42
2022-09-07T15:13:45.935Z,41.31
2022-09-07T15:16:31.053Z,41.10
2022-09-07T15:19:28.618Z,40.92
2022-09-07T15:22:13.380Z,41.09
2022-09-07T15:24:51.058Z,41.19
2022-09-07T15:27:32.266Z,41.55
2022-09-07T15:30:10.745Z,41.51
2022-09-07T15:32:46.750Z,41.32
2022-09-07T15:35:22.848Z,41.53
2022-09-07T15:38:03.251Z,41.44
2022-09-07T15:41:18.130Z,41.46
2022-09-07T15:43:44.345Z,41.94
2022-09-07T15:46:20.772Z,42.18
2022-09-07T15:48:58.937Z,42.56
2022-09-07T15:54:35.018Z,42.21
2022-09-07T16:00:11.966Z,42.01
2022-09-07T16:03:07.827Z,42.37
2022-09-07T16:05:47.031Z,42.59
2022-09-07T16:08:26.477Z,42.75
2022-09-07T16:11:14.687Z,43.03
2022-09-07T16:14:01.814Z,43.26
2022-09-07T16:19:36.010Z,43.28
2022-09-07T16:23:13.197Z,43.70
2022-09-07T16:25:09.826Z,43.65
2022-09-07T16:27:45.888Z,43.75
2022-09-07T16:30:22.326Z,43.76
2022-09-07T16:32:58.843Z,43.86
2022-09-07T16:35:34.815Z,43.92
2022-09-07T16:41:11.561Z,44.38
2022-09-07T16:43:48.189Z,44.59
2022-09-07T16:46:27.723Z,44.87
2022-09-07T16:49:05.674Z,45.20
2022-09-07T16:51:42.663Z,45.70
2022-09-07T16:54:18.754Z,46.51
2022-09-07T16:56:54.697Z,47.37
2022-09-07T16:59:31.227Z,47.70
2022-09-07T17:02:07.433Z,48.66
2022-09-07T17:04:43.498Z,49.45
2022-09-07T17:07:19.401Z,50.17
2022-09-07T17:09:55.695Z,51.39
2022-09-07T17:12:31.547Z,52.29
2022-09-07T17:15:09.414Z,52.92
2022-09-07T17:17:45.589Z,53.59
2022-09-07T17:20:21.925Z,54.21
2022-09-07T17:23:00.737Z,54.54
2022-09-07T17:25:37.947Z,54.66
2022-09-07T17:28:16.794Z,55.20
2022-09-07T17:30:52.597Z,55.30
2022-09-07T17:33:28.607Z,55.72
2022-09-07T17:36:10.112Z,56.53
2022-09-07T17:41:42.368Z,57.88
2022-09-07T17:44:18.810Z,58.25
2022-09-07T17:46:54.922Z,58.50
2022-09-07T17:49:31.402Z,58.75
2022-09-07T17:52:07.939Z,59.19
2022-09-07T17:54:43.796Z,59.63
2022-09-07T17:57:22.602Z,59.84
2022-09-07T18:00:15.830Z,59.88
2022-09-07T18:02:51.746Z,60.06
2022-09-07T18:05:27.801Z,60.31
2022-09-07T18:08:06.056Z,60.80
2022-09-07T18:13:39.951Z,61.64
2022-09-07T18:16:23.492Z,62.00
2022-09-07T18:19:02.217Z,62.12
2022-09-07T18:21:42.071Z,62.40
2022-09-07T18:24:23.306Z,62.82
2022-09-07T18:26:59.150Z,61.77
2022-09-07T18:29:35.318Z,61.97
2022-09-07T18:32:12.639Z,61.45
2022-09-07T18:34:50.718Z,61.96
2022-09-07T18:37:27.046Z,61.66
2022-09-07T18:40:03.598Z,61.85
2022-09-07T18:42:40.530Z,62.09
2022-09-07T18:45:32.761Z,61.65
2022-09-07T18:48:12.468Z,61.06
2022-09-07T18:50:55.800Z,60.25
2022-09-07T18:53:33.652Z,59.88
2022-09-07T18:56:14.265Z,59.48
2022-09-07T18:58:55.797Z,59.22
2022-09-07T19:01:32.178Z,58.94
2022-09-07T19:04:08.635Z,58.81
2022-09-07T19:06:44.831Z,58.66
2022-09-07T19:09:21.413Z,58.43
2022-09-07T19:11:57.400Z,58.29
2022-09-07T19:14:35.778Z,58.25
2022-09-07T19:17:12.380Z,58.20
2022-09-07T19:19:48.692Z,57.97
2022-09-07T19:22:26.809Z,57.73
2022-09-07T19:25:02.820Z,57.58
2022-09-07T19:27:39.043Z,57.48
2022-09-07T19:30:17.512Z,57.41
2022-09-07T19:32:53.608Z,57.45
2022-09-07T19:35:30.248Z,57.43
2022-09-07T19:38:06.683Z,57.43
2022-09-07T19:40:42.709Z,57.43
2022-09-07T19:43:18.579Z,57.41
2022-09-07T19:45:54.499Z,57.79
2022-09-07T19:48:31.659Z,57.40
2022-09-07T19:51:10.754Z,57.31
2022-09-07T19:53:48.878Z,57.35
2022-09-07T19:56:25.233Z,57.30
2022-09-07T19:59:01.512Z,57.28
2022-09-07T20:01:40.009Z,57.21
2022-09-07T20:04:20.605Z,57.08
2022-09-07T20:06:56.756Z,57.12
2022-09-07T20:09:32.870Z,57.20
2022-09-07T20:12:11.685Z,57.19
2022-09-07T20:14:47.903Z,57.23
2022-09-07T20:17:23.839Z,57.35
2022-09-07T20:20:01.034Z,57.52
2022-09-07T20:22:37.005Z,57.55
2022-09-07T20:25:13.850Z,57.66
2022-09-07T20:27:49.925Z,57.68
2022-09-07T20:30:25.945Z,57.74
2022-09-07T20:33:02.659Z,57.71
2022-09-07T20:35:38.565Z,57.73
2022-09-07T20:38:15.018Z,57.81
2022-09-07T20:41:02.052Z,57.67
2022-09-07T20:43:38.357Z,57.50
2022-09-07T20:46:15.635Z,57.42
2022-09-07T20:48:51.661Z,57.41
2022-09-07T20:51:27.716Z,57.11
2022-09-07T20:54:03.649Z,56.98
2022-09-07T20:56:39.539Z,56.85
2022-09-07T20:59:15.746Z,56.78
2022-09-07T21:01:55.324Z,56.70
2022-09-07T21:04:31.643Z,56.60
2022-09-07T21:07:07.658Z,56.63
2022-09-07T21:09:43.409Z,56.56
2022-09-07T21:12:19.525Z,56.46
2022-09-07T21:14:58.277Z,56.50
2022-09-07T21:17:34.184Z,56.31
2022-09-07T21:20:11.964Z,56.20
2022-09-07T21:22:48.276Z,56.15
2022-09-07T21:25:24.263Z,56.04
2022-09-07T21:28:00.122Z,55.87
2022-09-07T21:30:36.177Z,55.71
2022-09-07T21:33:12.167Z,55.53
2022-09-07T21:35:48.052Z,55.48
2022-09-07T21:38:24.962Z,55.37
2022-09-07T21:41:00.829Z,55.24
2022-09-07T21:43:36.999Z,55.16
2022-09-07T21:46:15.885Z,55.08
2022-09-07T21:48:52.077Z,55.14
2022-09-07T21:51:28.974Z,55.03
2022-09-07T21:54:05.724Z,54.97
2022-09-07T21:56:46.385Z,54.96
2022-09-07T21:59:22.749Z,55.08
2022-09-07T22:01:58.637Z,55.09
2022-09-07T22:04:36.896Z,55.19
2022-09-07T22:07:12.891Z,55.71
2022-09-07T22:09:48.953Z,56.71
2022-09-07T22:12:24.889Z,57.52
2022-09-07T22:15:01.036Z,56.60
2022-09-07T22:17:37.110Z,57.03
2022-09-07T22:20:15.680Z,57.92
2022-09-07T22:22:51.620Z,58.51
2022-09-07T22:25:27.711Z,58.17
2022-09-07T22:28:03.985Z,57.89
2022-09-07T22:30:39.805Z,58.82
2022-09-07T22:33:15.657Z,59.04
2022-09-07T22:35:51.840Z,58.80
2022-09-07T22:38:28.770Z,59.67
2022-09-07T22:41:13.853Z,60.22
2022-09-07T22:43:51.236Z,60.49
2022-09-07T22:46:32.007Z,61.15
2022-09-07T22:49:11.727Z,60.66
2022-09-07T22:51:48.393Z,61.10
2022-09-07T22:54:24.648Z,61.18
2022-09-07T22:57:00.509Z,61.14
2022-09-07T22:59:36.878Z,61.14
2022-09-07T23:02:12.818Z,61.53
2022-09-07T23:04:48.773Z,62.26
2022-09-07T23:07:24.776Z,62.59
2022-09-07T23:10:01.039Z,62.77
2022-09-07T23:12:36.969Z,63.28
2022-09-07T23:15:14.401Z,64.19
2022-09-07T23:17:51.955Z,63.80
2022-09-07T23:20:27.765Z,63.02
2022-09-07T23:23:03.620Z,63.18
2022-09-07T23:25:43.144Z,63.89
2022-09-07T23:28:19.090Z,63.76
2022-09-07T23:30:55.400Z,64.38
2022-09-07T23:33:32.568Z,64.21
2022-09-07T23:36:11.018Z,64.48
2022-09-07T23:38:47.283Z,64.56
2022-09-07T23:41:23.262Z,64.64
2022-09-07T23:44:00.568Z,65.45
2022-09-07T23:46:36.417Z,65.81
2022-09-07T23:49:12.312Z,66.18
2022-09-07T23:51:48.163Z,65.96
2022-09-07T23:54:24.043Z,65.57
2022-09-07T23:57:00.365Z,66.26
2022-09-07T23:59:36.150Z,66.54
